Home > Products > Valid Products > TAF

000
FTUS41 KCTP 301800 RRA
TAFUNV
TAF
KUNV 301800Z 3018/3118 21006KT P6SM SCT045 SCT120
     FM301900 25006KT P6SM VCTS BKN050CB
     FM302100 26005KT P6SM SCT050
     FM310700 33002KT 4SM BR SKC
     FM311300 00000KT P6SM SKC=



000
FTUS41 KCTP 301800 RRA
TAFIPT
TAF
KIPT 301800Z 3018/3118 VRB03KT P6SM SKC
     FM301900 23006KT P6SM VCTS BKN050CB
     FM302200 24005KT P6SM SCT050
     FM310500 00000KT P6SM SKC
     FM311500 28003KT P6SM SCT250=



000
FTUS41 KCTP 301800 RRA
TAFAOO
TAF
KAOO 301800Z 3018/3118 VRB05KT P6SM FEW045
     FM301900 26006KT P6SM VCTS BKN050CB
     FM302100 28005KT P6SM SCT050
     FM310700 33002KT 4SM BR SKC
     FM311300 00000KT P6SM SKC=



000
FTUS41 KCTP 301800 RRA
TAFJST
TAF
KJST 301800Z 3018/3118 28009KT P6SM VCTS BKN035CB
     FM302100 30005KT P6SM SCT050
     FM311300 34004KT P6SM SCT250=



000
FTUS41 KCTP 301800 RRA
TAFMDT
TAF
KMDT 301800Z 3018/3118 00000KT P6SM BKN250
     FM302000 22006KT P6SM VCSH SCT050
     FM302200 24004KT P6SM SCT050
     FM310400 00000KT 4SM BR SCT150
     FM311400 VRB03KT P6SM FEW250=



000
FTUS41 KCTP 301111 AAB
TAFMDT
TAF AMD
KMDT 301111Z 3011/3106 28004KT P6SM BKN080 OVC150
     FM301900 22006KT P6SM VCSH SCT050
     FM302200 24004KT P6SM SCT050
     FM310400 00000KT 4SM BR SCT150=



000
FTUS41 KCTP 300208 AAA
TAFBFD
TAF AMD
KBFD 300208Z 3002/3024 00000KT P6SM SKC
     FM300900 25005KT 4SM -SHRA BR BKN030 OVC070
     FM301500 28008KT P6SM SCT030 OVC250=



000
FTUS41 KCTP 300156 AAB
TAFJST
TAF AMD
KJST 300156Z 3002/3024 23005KT 1SM BR SKC
      TEMPO 3002/3003 4SM BR SKC
     FM300300 23005KT 4SM BR BKN250
     FM301200 24005KT 2SM BR BKN004
     FM301500 27005KT P6SM BKN100=



000
FTUS41 KCTP 300147 AAA
TAFJST
TAF AMD
KJST 300147Z 3002/3024 23005KT 2SM BR SKC
      TEMPO 3002/3003 4SM BR SKC
     FM300300 23005KT 4SM BR BKN250
     FM301200 24005KT 2SM BR BKN004
     FM301500 27005KT P6SM BKN100=



000
FTUS41 KCTP 292359
TAFAOO
TAF
KAOO 292359Z 3000/3024 00000KT P6SM VCSH OVC100
     FM300100 21002KT P6SM -RA OVC050
     FM300600 23002KT 4SM BR BKN250
     FM301300 25003KT P6SM OVC100=



000
FTUS41 KCTP 292359
TAFUNV
TAF
KUNV 292359Z 3000/3024 21005KT P6SM BKN110
     FM300500 25003KT P6SM OVC100
     FM301300 25003KT P6SM OVC100=



000
FTUS41 KCTP 292359
TAFJST
TAF
KJST 292359Z 3000/3024 00000KT P6SM -RA SCT080 OVC100
     FM300600 23005KT 4SM BR BKN250
     FM301200 24005KT 2SM BR BKN004
     FM301500 27005KT P6SM BKN100=



000
FTUS41 KCTP 292359
TAFMDT
TAF
KMDT 292359Z 3000/3024 VRB05KT P6SM -RA BKN090 OVC120
     FM300200 15002KT P6SM VCSH OVC030
     FM300500 27003KT 4SM BR OVC015
     FM301300 28003KT 4SM -RA BR OVC025
     FM301500 VRB04KT P6SM OVC250=



000
FTUS41 KCTP 292359
TAFIPT
TAF
KIPT 292359Z 3000/3024 18012G19KT P6SM SKC
     FM300400 VRB02KT 4SM -RA BR BKN050 OVC100
     FM301000 00000KT 6SM BR OVC100=



000
FTUS41 KCTP 292359
TAFBFD
TAF
KBFD 292359Z 3000/3024 22008G14KT P6SM OVC100
     FM300100 22006KT P6SM BKN100
     FM300200 00000KT 4SM BR OVC100
     FM300900 25005KT 4SM -SHRA BR BKN030 OVC070
     FM301500 28008KT P6SM SCT030 OVC250=



000
FTUS41 KCTP 291959 AAB
TAFJST
TAF AMD
KJST 291959Z 2920/3018 26004KT 6SM -RA VCTS FEW025 BKN035CB OVC100
     FM292200 21005KT P6SM VCSH SCT040 OVC100
     FM301000 24003KT 4SM BR OVC050=



000
FTUS41 KCTP 291806 RRA
TAFMDT
TAF
KMDT 291806Z 2918/3018 19008KT P6SM FEW060 BKN230
     FM300000 17002KT P6SM -SHRA OVC100
     FM300300 15002KT 4SM RA OVC040
     FM301200 28003KT 4SM BR OVC025 PROB30 3012/3013 4SM -RA OVC025=



000
FTUS41 KCTP 291806 RRA
TAFBFD
TAF
KBFD 291806Z 2918/3018 23004KT P6SM VCTS FEW070 SCT100CB
     FM300000 20003KT P6SM -SHRA SCT050 OVC100
     FM300400 00000KT 4SM BR OVC100
     FM301200 25005KT 6SM HZ OVC007=



000
FTUS41 KCTP 291806 RRA
TAFIPT
TAF
KIPT 291806Z 2918/3018 12007KT P6SM SCT050 SCT130
     FM292200 21002KT P6SM -SHRA OVC100
     FM300400 VRB02KT 4SM -RA BR BKN050 OVC100
     FM301000 00000KT 6SM BR OVC100=



000
FTUS41 KCTP 291806 RRA
TAFJST
TAF
KJST 291806Z 2918/3018 26004KT 4SM -RA VCTS FEW040 BKN080CB OVC100
     FM292200 21005KT P6SM VCSH SCT040 OVC100
     FM301000 24003KT 4SM BR OVC050=



000
FTUS41 KCTP 291806 RRA
TAFAOO
TAF
KAOO 291806Z 2918/3018 14009KT P6SM SCT050 BKN130
     FM291900 21002KT P6SM VCSH SCT050 OVC100
     FM300100 21002KT P6SM -RA OVC050
     FM301300 25003KT P6SM OVC100=



000
FTUS41 KCTP 291806 RRA
TAFUNV
TAF
KUNV 291806Z 2918/3018 21004KT P6SM VCSH BKN050
     FM292100 21002KT P6SM VCSH SCT050 OVC100
     FM300200 21002KT P6SM -RA OVC050
     FM301300 25003KT P6SM OVC100=



000
FTUS41 KCTP 290000 RRA
TAFJST
TAF
KJST 290000Z 2900/2924 32003KT P6SM SCT060 BKN090
     FM290200 VRB03KT 5SM BR SKC
     FM291300 23005KT P6SM SCT040=



000
FTUS41 KCTP 290000 RRA
TAFBFD
TAF
KBFD 290000Z 2900/2924 VRB05KT P6SM VCTS BKN040CB
      TEMPO 2900/2901 5SM -TSRA BKN040CB
     FM290100 VRB03KT P6SM BKN040
     FM290600 00000KT 4SM BR BKN250
     FM291400 23005KT P6SM -SHRA SCT040
     FM291600 23005KT P6SM VCTS BKN040CB=



000
FTUS41 KCTP 290000 RRA
TAFUNV
TAF
KUNV 290000Z 2900/2924 07003KT P6SM SCT110
     FM291300 VRB03KT P6SM SCT040=



000
FTUS41 KCTP 290000 RRA
TAFAOO
TAF
KAOO 290000Z 2900/2924 17009KT P6SM SKC
     FM291300 VRB03KT P6SM SCT040=



000
FTUS41 KCTP 290000 RRA
TAFIPT
TAF
KIPT 290000Z 2900/2924 21003KT P6SM SKC
     FM291300 VRB03KT P6SM SCT040=



000
FTUS41 KCTP 290000 RRA
TAFMDT
TAF
KMDT 290000Z 2900/2924 20005KT P6SM FEW060 FEW200
     FM291300 VRB03KT P6SM SCT040
     FM291500 19003KT P6SM OVC250=



000
FTUS41 KCTP 282018 AAA
TAFUNV
TAF AMD
KUNV 282018Z 2820/2918 VRB03KT P6SM SCT050 BKN100
     FM282200 19003KT P6SM SCT050
     FM290000 00000KT 6SM BR SKC
     FM291300 VRB03KT P6SM SCT040=



000
FTUS41 KCTP 281501 AAA
TAFUNV
TAF AMD
KUNV 281501Z 2815/2912 00000KT P6SM SCT250
     FM281600 17005KT P6SM SCT050=



000
FTUS41 KCTP 281435 AAA
TAFMDT
TAF AMD
KMDT 281435Z 2815/2912 00000KT 5SM BR SCT250
     FM281530 16004KT 6SM HZ SCT250
     FM281700 18006KT P6SM SCT050=



000
FTUS41 KCTP 281126
TAFBFD
TAF
KBFD 281126Z 2812/2912 20003KT P6SM BKN250
     FM281400 20004KT P6SM SCT040
     FM281900 19005KT P6SM VCTS BKN040CB
     FM282200 19003KT P6SM BKN040=



000
FTUS41 KCTP 281126
TAFJST
TAF
KJST 281126Z 2812/2912 22005KT P6SM SCT250
     FM281400 20003KT P6SM SCT040
     FM281900 19006KT P6SM VCTS BKN040CB
     FM282200 19004KT P6SM BKN040=



000
FTUS41 KCTP 281126
TAFIPT
TAF
KIPT 281126Z 2812/2912 00000KT 1/4SM FG BKN002
     FM281300 16005KT P6SM SKC
     FM281500 17005KT P6SM SCT050=



000
FTUS41 KCTP 281126
TAFUNV
TAF
KUNV 281126Z 2812/2912 00000KT P6SM SCT250
     FM281400 17005KT P6SM SCT050=



000
FTUS41 KCTP 281126
TAFAOO
TAF
KAOO 281126Z 2812/2912 00000KT P6SM SCT250
     FM281400 19005KT P6SM SCT050=



000
FTUS41 KCTP 281126
TAFMDT
TAF
KMDT 281126Z 2812/2912 00000KT 5SM BR SCT250
     FM281300 16005KT P6SM SCT250
     FM281500 18006KT P6SM SCT050=



000
FTUS41 KCTP 281107 AAB
TAFAOO
TAF AMD
KAOO 281107Z 2811/2906 00000KT 6SM BR SCT250
     FM281230 19005KT P6SM SCT050=



000
FTUS41 KCTP 280753 AAA
TAFIPT
TAF AMD
KIPT 280753Z 2808/2906 00000KT P6SM SCT003 SCT150
      TEMPO 2808/2809 BKN003
     FM281230 16005KT P6SM SCT050=



    US Dept of Commerce
    National Oceanic and Atmospheric Administration
    National Weather Service
    1325 East West Highway
    Silver Spring, MD 20910
    Page Author: NWS Internet Services Team
Disclaimer
Information Quality
Credits
Glossary
Privacy Policy
Freedom of Information Act (FOIA)
About Us
Career Opportunities